Impacts METAR Board INFO
IDs:

KHBG - Hattiesburg/Chain Mu, MS, US

Updated at: 1036 UTC 23 Feb 2018
Potential Impact None Slight Moderate High
Time22/22Z 22/23Z 23/00Z 23/01Z 23/02Z 23/03Z 23/04Z 23/05Z 23/06Z 23/07Z 23/08Z 23/09Z 23/10Z
VIS10 10 10 10 10 10 10 10 10 10 8 7 0.25
CIG-- -- -- -- -- -- -- -- -- 9 18 -- 2
CoverCLRCLRCLRCLRCLRCLRCLRCLRCLRBKNBKNSCTOVX
FltCatVFRVFRVFRVFRVFRVFRVFRVFRVFRIFRMVFRVFRLIFR
WX------------------------FG
WDir1801801801701701701701901601700120140
WSpd11 12 9 5 4 6 8 7 4 5 0 3 4
WGst20 -- -- -- -- -- -- -- -- -- -- -- --
Raw hourly METARs
KHBG 222153Z AUTO 18011G20KT 10SM CLR 28/18 A3026 RMK AO2 SLP243 T02780178
KHBG 222253Z AUTO 18012KT 10SM CLR 27/18 A3027 RMK AO2 SLP247 T02670183
KHBG 222353Z AUTO 18009KT 10SM CLR 25/19 A3028 RMK AO2 SLP250 T02500189 10294 20250 53005
KHBG 230053Z AUTO 17005KT 10SM CLR 23/19 A3030 RMK AO2 SLP256 T02280189
KHBG 230153Z AUTO 17004KT 10SM CLR 22/19 A3031 RMK AO2 SLP262 T02220194
KHBG 230253Z AUTO 17006KT 10SM CLR 21/19 A3033 RMK AO2 SLP266 T02110194 51016
KHBG 230353Z AUTO 17008KT 10SM CLR 21/20 A3033 RMK AO2 SLP267 T02110200
KHBG 230453Z AUTO 19007KT 10SM CLR 21/20 A3032 RMK AO2 SLP266 T02060200
KHBG 230553Z AUTO 16004KT 10SM CLR 19/19 A3033 RMK AO2 SLP266 T01940194 10250 20194 402940194 58000
KHBG 230653Z AUTO 17005KT 10SM BKN009 19/19 A3033 RMK AO2 SLP266 T01940194
KHBG 230802Z AUTO 00000KT 8SM BKN018 19/19 A3031 RMK AO2 T01890189
KHBG 230853Z AUTO 12003KT 7SM SCT015 18/18 A3029 RMK AO2 SLP254 T01780178 58012
KHBG 231004Z AUTO 14004KT 1/4SM FG VV002 18/18 A3027 RMK AO2 T01780178